createdAt,value
2023-04-18T00:02:20.869Z,14.35
2023-04-18T00:05:23.264Z,13.74
2023-04-18T00:08:25.852Z,13.50
2023-04-18T00:11:28.285Z,13.65
2023-04-18T00:14:31.351Z,13.57
2023-04-18T00:17:33.339Z,13.56
2023-04-18T00:20:39.123Z,12.91
2023-04-18T00:23:42.167Z,13.57
2023-04-18T00:26:44.880Z,14.61
2023-04-18T00:29:47.653Z,14.44
2023-04-18T00:32:52.157Z,14.44
2023-04-18T00:35:54.516Z,14.28
2023-04-18T00:38:57.331Z,14.62
2023-04-18T00:41:59.563Z,14.08
2023-04-18T00:45:02.933Z,14.44
2023-04-18T00:48:05.300Z,14.40
2023-04-18T00:51:09.644Z,14.65
2023-04-18T00:54:13.893Z,14.31
2023-04-18T00:57:16.872Z,14.41
2023-04-18T01:00:19.355Z,14.49
2023-04-18T01:03:23.171Z,14.72
2023-04-18T01:06:27.511Z,14.71
2023-04-18T01:09:32.234Z,14.21
2023-04-18T01:12:34.510Z,14.13
2023-04-18T01:15:37.289Z,13.91
2023-04-18T01:18:40.501Z,13.83
2023-04-18T01:21:44.853Z,13.56
2023-04-18T01:24:50.315Z,13.60
2023-04-18T01:27:55.006Z,13.39
2023-04-18T01:30:57.556Z,13.78
2023-04-18T01:34:00.507Z,14.17
2023-04-18T01:37:02.650Z,14.24
2023-04-18T01:40:05.513Z,14.03
2023-04-18T01:43:07.834Z,14.07
2023-04-18T01:46:13.728Z,13.78
2023-04-18T01:49:16.578Z,13.86
2023-04-18T01:52:20.084Z,14.10
2023-04-18T01:55:22.940Z,14.16
2023-04-18T01:58:25.963Z,13.70
2023-04-18T02:01:28.407Z,14.04
2023-04-18T02:04:31.686Z,14.30
2023-04-18T02:07:33.659Z,14.18
2023-04-18T02:10:36.789Z,14.24
2023-04-18T02:13:39.813Z,13.94
2023-04-18T02:16:42.831Z,13.70
2023-04-18T02:19:44.843Z,13.81
2023-04-18T02:22:48.279Z,13.47
2023-04-18T02:25:51.409Z,13.55
2023-04-18T02:28:54.246Z,13.46
2023-04-18T02:31:58.569Z,13.81
2023-04-18T02:35:01.296Z,13.73
2023-04-18T02:38:03.722Z,13.40
2023-04-18T02:41:06.532Z,13.38
2023-04-18T02:44:09.170Z,13.32
2023-04-18T02:47:14.116Z,13.35
2023-04-18T02:50:19.802Z,13.60
2023-04-18T02:53:24.756Z,13.63
2023-04-18T02:56:31.038Z,13.63
2023-04-18T02:59:54.305Z,13.71
2023-04-18T03:03:17.259Z,13.74
2023-04-18T03:06:32.355Z,13.80
2023-04-18T03:09:37.096Z,13.42
2023-04-18T03:12:48.722Z,13.42
2023-04-18T03:15:53.290Z,13.56
2023-04-18T03:18:56.524Z,13.93
2023-04-18T03:21:59.160Z,13.43
2023-04-18T03:25:03.807Z,12.95
2023-04-18T03:28:19.433Z,13.05
2023-04-18T03:31:22.442Z,12.78
2023-04-18T03:34:24.642Z,13.20
2023-04-18T03:37:28.954Z,13.46
2023-04-18T03:40:32.715Z,13.36
2023-04-18T03:43:42.308Z,13.33
2023-04-18T03:46:44.646Z,13.46
2023-04-18T03:49:49.039Z,13.18
2023-04-18T03:52:52.584Z,12.62
2023-04-18T03:55:55.336Z,12.92
2023-04-18T03:59:01.532Z,12.98
2023-04-18T04:02:04.342Z,12.95
2023-04-18T04:05:06.872Z,12.69
2023-04-18T04:08:10.366Z,12.72
2023-04-18T04:11:12.707Z,12.67
2023-04-18T04:14:16.184Z,12.72
2023-04-18T04:17:22.665Z,12.44
2023-04-18T04:20:26.950Z,12.62
2023-04-18T04:23:43.471Z,12.45
2023-04-18T04:26:56.530Z,12.82
2023-04-18T04:30:01.034Z,12.71
2023-04-18T04:33:04.484Z,12.26
2023-04-18T04:36:07.828Z,11.79
2023-04-18T04:39:12.140Z,12.60
2023-04-18T04:42:29.724Z,12.80
2023-04-18T04:45:41.651Z,11.97
2023-04-18T04:48:44.125Z,12.74
2023-04-18T04:51:46.542Z,13.19
2023-04-18T04:54:48.793Z,13.11
2023-04-18T04:57:57.811Z,12.57
2023-04-18T05:01:11.394Z,12.58
2023-04-18T05:04:14.534Z,12.57
2023-04-18T05:07:17.119Z,13.08
2023-04-18T05:10:19.749Z,12.85
2023-04-18T05:13:21.953Z,12.51
2023-04-18T05:16:24.620Z,12.10
2023-04-18T05:19:27.195Z,12.21
2023-04-18T05:22:29.900Z,12.10
2023-04-18T05:25:32.542Z,12.50
2023-04-18T05:28:35.189Z,12.81
2023-04-18T05:31:37.990Z,12.44
2023-04-18T05:34:41.274Z,12.92
2023-04-18T05:37:43.659Z,12.71
2023-04-18T05:40:46.878Z,12.69
2023-04-18T05:43:58.218Z,12.44
2023-04-18T05:47:07.622Z,11.82
2023-04-18T05:50:11.209Z,12.12
2023-04-18T05:53:13.818Z,12.55
2023-04-18T05:56:16.161Z,13.09
2023-04-18T05:59:20.777Z,13.45
2023-04-18T06:02:23.226Z,13.01
2023-04-18T06:05:26.342Z,12.99
2023-04-18T06:08:28.736Z,12.74
2023-04-18T06:11:33.797Z,13.45
2023-04-18T06:14:36.008Z,13.04
2023-04-18T06:17:38.749Z,12.64
2023-04-18T06:20:42.761Z,13.11
2023-04-18T06:23:45.692Z,13.40
2023-04-18T06:26:47.908Z,13.06
2023-04-18T06:29:50.807Z,12.81
2023-04-18T06:32:53.194Z,12.84
2023-04-18T06:35:57.427Z,12.48
2023-04-18T06:38:59.708Z,13.30
2023-04-18T06:42:02.788Z,13.93
2023-04-18T06:45:07.017Z,13.15
2023-04-18T06:48:11.189Z,12.65
2023-04-18T06:51:14.673Z,13.06
2023-04-18T06:54:17.729Z,13.36
2023-04-18T06:57:20.070Z,12.81
2023-04-18T07:00:22.672Z,12.74
2023-04-18T07:03:25.575Z,12.74
2023-04-18T07:06:28.860Z,12.57
2023-04-18T07:09:32.468Z,14.10
2023-04-18T07:12:36.094Z,14.54
2023-04-18T07:15:38.364Z,13.98
2023-04-18T07:18:41.161Z,13.60
2023-04-18T07:21:45.464Z,12.81
2023-04-18T07:24:47.943Z,12.98
2023-04-18T07:27:50.496Z,12.77
2023-04-18T07:30:53.112Z,12.65
2023-04-18T07:33:55.687Z,12.54
2023-04-18T07:37:24.733Z,12.60
2023-04-18T07:40:28.448Z,12.81
2023-04-18T07:43:31.891Z,12.67
2023-04-18T07:46:40.489Z,13.01
2023-04-18T07:49:43.850Z,12.47
2023-04-18T07:52:49.133Z,12.65
2023-04-18T07:55:51.682Z,13.46
2023-04-18T07:58:54.000Z,13.32
2023-04-18T08:01:56.888Z,12.87
2023-04-18T08:04:59.165Z,12.72
2023-04-18T08:08:01.802Z,12.88
2023-04-18T08:11:04.235Z,13.32
2023-04-18T08:14:06.928Z,13.57
2023-04-18T08:17:09.873Z,13.45
2023-04-18T08:20:13.307Z,12.99
2023-04-18T08:23:16.016Z,13.81
2023-04-18T08:26:18.435Z,13.45
2023-04-18T08:29:20.889Z,13.55
2023-04-18T08:32:24.168Z,14.06
2023-04-18T08:35:26.941Z,13.36
2023-04-18T08:38:29.504Z,13.70
2023-04-18T08:41:38.165Z,13.09
2023-04-18T08:44:40.867Z,12.96
2023-04-18T08:47:43.391Z,12.84
2023-04-18T08:50:46.310Z,13.47
2023-04-18T08:53:48.724Z,13.66
2023-04-18T08:57:04.968Z,14.86
2023-04-18T09:00:10.809Z,15.57
2023-04-18T09:03:15.807Z,15.50
2023-04-18T09:06:19.349Z,15.36
2023-04-18T09:09:27.491Z,14.92
2023-04-18T09:12:29.979Z,14.57
2023-04-18T09:15:32.574Z,14.41
2023-04-18T09:18:34.991Z,13.59
2023-04-18T09:21:42.262Z,13.97
2023-04-18T09:24:59.105Z,14.11
2023-04-18T09:28:06.591Z,13.60
2023-04-18T09:31:15.811Z,13.65
2023-04-18T09:34:26.874Z,13.46
2023-04-18T09:37:30.024Z,13.69
2023-04-18T09:40:33.323Z,13.94
2023-04-18T09:43:35.577Z,13.60
2023-04-18T09:46:38.171Z,13.67
2023-04-18T09:49:40.941Z,14.01
2023-04-18T09:52:45.832Z,14.16
2023-04-18T09:55:55.534Z,14.25
2023-04-18T09:59:08.448Z,14.52
2023-04-18T10:02:17.289Z,15.04
2023-04-18T10:05:22.735Z,14.65
2023-04-18T10:08:26.702Z,14.82
2023-04-18T10:11:32.203Z,15.60
2023-04-18T10:14:35.500Z,15.20
2023-04-18T10:18:04.255Z,14.79
2023-04-18T10:21:09.864Z,14.59
2023-04-18T10:24:32.438Z,15.20
2023-04-18T10:27:49.915Z,15.13
2023-04-18T10:30:57.415Z,15.74
2023-04-18T10:34:17.695Z,15.70
2023-04-18T10:37:20.552Z,15.34
2023-04-18T10:40:34.309Z,15.61
2023-04-18T10:44:15.368Z,15.43
2023-04-18T10:47:20.401Z,15.36
2023-04-18T10:50:23.368Z,15.30
2023-04-18T10:53:26.065Z,14.34
2023-04-18T10:56:29.201Z,14.49
2023-04-18T10:59:33.961Z,15.44
2023-04-18T11:02:37.331Z,15.68
2023-04-18T11:05:39.797Z,15.56
2023-04-18T11:08:43.173Z,15.27
2023-04-18T11:11:45.730Z,15.34
2023-04-18T11:14:54.522Z,14.99
2023-04-18T11:18:04.877Z,15.09
2023-04-18T11:21:08.348Z,15.16
2023-04-18T11:24:10.874Z,15.24
2023-04-18T11:27:14.402Z,15.07
2023-04-18T11:30:16.411Z,14.58
2023-04-18T11:33:18.997Z,15.54
2023-04-18T11:36:21.254Z,15.56
2023-04-18T11:39:24.420Z,15.53
2023-04-18T11:42:29.467Z,16.30
2023-04-18T11:45:32.176Z,16.29
2023-04-18T11:48:39.024Z,15.77
2023-04-18T11:51:46.323Z,15.53
2023-04-18T11:54:48.322Z,15.39
2023-04-18T11:57:54.357Z,15.30
2023-04-18T12:00:56.716Z,15.84
2023-04-18T12:04:02.757Z,15.87
2023-04-18T12:07:05.254Z,15.60
2023-04-18T12:10:10.375Z,15.00
2023-04-18T12:13:12.895Z,14.83
2023-04-18T12:16:15.530Z,14.67
2023-04-18T12:19:17.902Z,14.73
2023-04-18T12:22:20.390Z,15.13
2023-04-18T12:25:27.337Z,15.32
2023-04-18T12:28:31.323Z,15.00
2023-04-18T12:31:33.591Z,15.24
2023-04-18T12:34:36.193Z,15.42
2023-04-18T12:37:38.465Z,15.27
2023-04-18T12:40:41.189Z,15.23
2023-04-18T12:43:43.564Z,15.24
2023-04-18T12:46:46.287Z,15.23
2023-04-18T12:49:48.603Z,14.61
2023-04-18T12:52:56.124Z,14.92
2023-04-18T12:55:59.102Z,14.88
2023-04-18T12:59:01.681Z,14.82
2023-04-18T13:02:04.011Z,15.09
2023-04-18T13:05:11.585Z,14.96
2023-04-18T13:08:17.633Z,15.27
2023-04-18T13:11:22.753Z,14.79
2023-04-18T13:14:25.049Z,15.22
2023-04-18T13:17:27.721Z,15.37
2023-04-18T13:20:29.968Z,15.09
2023-04-18T13:23:32.921Z,15.06
2023-04-18T13:26:36.315Z,14.55
2023-04-18T13:29:39.980Z,14.64
2023-04-18T13:32:44.221Z,14.85
2023-04-18T13:35:47.091Z,14.73
2023-04-18T13:38:50.231Z,14.81
2023-04-18T13:41:55.000Z,14.62
2023-04-18T13:44:58.019Z,14.82
2023-04-18T13:48:00.802Z,14.91
2023-04-18T13:51:03.849Z,15.29
2023-04-18T13:54:06.267Z,15.39
2023-04-18T13:57:11.872Z,15.12
2023-04-18T14:00:15.444Z,15.09
2023-04-18T14:03:18.183Z,14.95
2023-04-18T14:06:21.543Z,14.99
2023-04-18T14:09:24.331Z,15.22
2023-04-18T14:12:27.010Z,15.09
2023-04-18T14:15:30.968Z,15.27
2023-04-18T14:18:33.762Z,15.97
2023-04-18T14:21:36.215Z,16.22
2023-04-18T14:24:38.808Z,16.36
2023-04-18T14:27:41.550Z,16.62
2023-04-18T14:30:44.576Z,16.87
2023-04-18T14:33:49.497Z,16.38
2023-04-18T14:36:52.776Z,15.80
2023-04-18T14:39:55.291Z,15.95
2023-04-18T14:42:57.749Z,15.61
2023-04-18T14:46:00.274Z,16.17
2023-04-18T14:49:02.886Z,16.12
2023-04-18T14:52:05.382Z,16.89
2023-04-18T14:55:09.794Z,16.99
2023-04-18T14:58:11.995Z,17.00
2023-04-18T15:01:14.735Z,16.94
2023-04-18T15:04:17.405Z,16.63
2023-04-18T15:07:20.530Z,16.56
2023-04-18T15:10:22.936Z,16.53
2023-04-18T15:13:25.849Z,16.25
2023-04-18T15:16:28.117Z,16.17
2023-04-18T15:19:32.148Z,16.18
2023-04-18T15:22:35.993Z,15.88
2023-04-18T15:25:39.186Z,15.91
2023-04-18T15:28:41.718Z,16.15
2023-04-18T15:31:45.166Z,16.12
2023-04-18T15:34:47.462Z,16.18
2023-04-18T15:37:51.582Z,16.44
2023-04-18T15:40:53.992Z,16.62
2023-04-18T15:43:56.494Z,16.76
2023-04-18T15:47:00.803Z,16.63
2023-04-18T15:50:04.290Z,16.22
2023-04-18T15:53:06.986Z,16.68
2023-04-18T15:56:10.172Z,16.68
2023-04-18T15:59:13.356Z,16.52
2023-04-18T16:02:16.168Z,16.21
2023-04-18T16:05:18.847Z,16.30
2023-04-18T16:08:21.507Z,16.36
2023-04-18T16:11:28.064Z,16.45
2023-04-18T16:14:31.837Z,16.49
2023-04-18T16:17:34.424Z,16.15
2023-04-18T16:20:37.416Z,16.45
2023-04-18T16:23:39.665Z,16.79
2023-04-18T16:26:42.348Z,16.36
2023-04-18T16:29:44.987Z,16.53
2023-04-18T16:32:47.935Z,16.52
2023-04-18T16:35:50.773Z,16.33
2023-04-18T16:38:53.331Z,16.22
2023-04-18T16:41:56.460Z,16.12
2023-04-18T16:44:59.207Z,15.95
2023-04-18T16:48:01.632Z,16.32
2023-04-18T16:51:04.564Z,16.42
2023-04-18T16:54:06.785Z,16.01
2023-04-18T16:57:09.907Z,16.11
2023-04-18T17:00:13.882Z,16.44
2023-04-18T17:03:16.354Z,16.12
2023-04-18T17:06:19.711Z,16.15
2023-04-18T17:09:22.443Z,16.36
2023-04-18T17:12:24.901Z,16.32
2023-04-18T17:15:28.540Z,16.14
2023-04-18T17:18:31.100Z,16.24
2023-04-18T17:21:34.853Z,16.11
2023-04-18T17:24:39.115Z,15.80
2023-04-18T17:27:41.710Z,15.80
2023-04-18T17:30:44.566Z,15.85
2023-04-18T17:33:47.284Z,16.07
2023-04-18T17:36:49.665Z,16.00
2023-04-18T17:39:52.919Z,15.97
2023-04-18T17:42:55.225Z,16.01
2023-04-18T17:45:59.893Z,16.02
2023-04-18T17:49:02.464Z,16.14
2023-04-18T17:52:05.542Z,16.15
2023-04-18T17:55:08.932Z,16.05
2023-04-18T17:58:11.660Z,16.04
2023-04-18T18:01:19.122Z,15.95
2023-04-18T18:04:24.816Z,15.87
2023-04-18T18:07:28.499Z,15.77
2023-04-18T18:10:31.687Z,15.97
2023-04-18T18:13:34.085Z,16.15
2023-04-18T18:16:39.409Z,16.28
2023-04-18T18:19:41.724Z,16.05
2023-04-18T18:22:44.855Z,15.67
2023-04-18T18:25:47.232Z,15.56
2023-04-18T18:28:50.274Z,15.46
2023-04-18T18:31:52.758Z,15.30
2023-04-18T18:34:55.394Z,15.22
2023-04-18T18:37:57.860Z,15.37
2023-04-18T18:41:03.983Z,15.22
2023-04-18T18:44:07.171Z,14.92
2023-04-18T18:47:09.886Z,15.04
2023-04-18T18:50:12.135Z,15.03
2023-04-18T18:53:17.117Z,14.96
2023-04-18T18:56:19.448Z,15.13
2023-04-18T18:59:22.144Z,15.03
2023-04-18T19:02:24.782Z,15.06
2023-04-18T19:05:28.369Z,14.82
2023-04-18T19:08:31.913Z,15.13
2023-04-18T19:11:36.468Z,15.07
2023-04-18T19:14:39.744Z,14.98
2023-04-18T19:17:43.600Z,15.02
2023-04-18T19:20:46.957Z,15.07
2023-04-18T19:23:49.824Z,14.96
2023-04-18T19:26:52.180Z,14.92
2023-04-18T19:29:54.772Z,14.99
2023-04-18T19:32:57.602Z,14.72
2023-04-18T19:36:00.368Z,14.85
2023-04-18T19:39:02.616Z,15.03
2023-04-18T19:42:05.295Z,15.09
2023-04-18T19:45:08.031Z,14.89
2023-04-18T19:48:11.007Z,15.13
2023-04-18T19:51:13.551Z,14.88
2023-04-18T19:54:16.470Z,15.13
2023-04-18T19:57:18.753Z,14.91
2023-04-18T20:00:21.811Z,14.96
2023-04-18T20:03:24.070Z,14.91
2023-04-18T20:06:27.217Z,14.88
2023-04-18T20:09:29.666Z,14.76
2023-04-18T20:12:32.729Z,14.89
2023-04-18T20:15:34.842Z,14.83
2023-04-18T20:18:39.760Z,14.72
2023-04-18T20:21:42.029Z,14.93
2023-04-18T20:24:46.337Z,14.82
2023-04-18T20:27:49.074Z,14.59
2023-04-18T20:30:52.214Z,14.69
2023-04-18T20:33:54.313Z,14.95
2023-04-18T20:36:57.997Z,14.93
2023-04-18T20:40:02.951Z,14.91
2023-04-18T20:43:06.927Z,14.71
2023-04-18T20:46:14.712Z,15.00
2023-04-18T20:49:17.781Z,15.06
2023-04-18T20:52:20.160Z,15.39
2023-04-18T20:55:22.959Z,15.16
2023-04-18T20:58:25.510Z,15.18
2023-04-18T21:01:28.425Z,15.40
2023-04-18T21:04:30.685Z,15.44
2023-04-18T21:07:33.328Z,15.09
2023-04-18T21:10:35.596Z,15.73
2023-04-18T21:13:38.075Z,16.05
2023-04-18T21:16:40.233Z,15.66
2023-04-18T21:19:45.931Z,15.85
2023-04-18T21:22:47.996Z,15.67
2023-04-18T21:25:50.981Z,16.15
2023-04-18T21:29:00.345Z,16.12
2023-04-18T21:32:03.732Z,16.32
2023-04-18T21:35:06.301Z,16.45
2023-04-18T21:38:09.325Z,16.41
2023-04-18T21:41:14.366Z,16.39
2023-04-18T21:44:19.052Z,16.63
2023-04-18T21:47:21.629Z,16.66
2023-04-18T21:50:24.402Z,16.51
2023-04-18T21:53:26.871Z,16.73
2023-04-18T21:56:29.338Z,16.84
2023-04-18T21:59:31.727Z,16.93
2023-04-18T22:02:34.630Z,16.75
2023-04-18T22:05:37.710Z,16.51
2023-04-18T22:08:40.202Z,16.93
2023-04-18T22:11:42.243Z,17.47
2023-04-18T22:14:48.738Z,17.14
2023-04-18T22:17:51.135Z,17.41
2023-04-18T22:20:55.014Z,17.44
2023-04-18T22:23:58.172Z,17.06
2023-04-18T22:27:01.736Z,17.04
2023-04-18T22:30:04.989Z,17.30
2023-04-18T22:33:07.871Z,17.21
2023-04-18T22:36:10.112Z,17.16
2023-04-18T22:39:12.921Z,17.11
2023-04-18T22:42:15.306Z,16.90
2023-04-18T22:45:18.827Z,16.55
2023-04-18T22:48:21.312Z,16.76
2023-04-18T22:51:24.651Z,16.92
2023-04-18T22:54:27.071Z,16.62
2023-04-18T22:57:30.600Z,16.41
2023-04-18T23:00:32.880Z,16.69
2023-04-18T23:03:35.739Z,16.38
2023-04-18T23:06:38.924Z,16.49
2023-04-18T23:09:41.661Z,16.28
2023-04-18T23:12:44.365Z,16.38
2023-04-18T23:15:47.356Z,16.94
2023-04-18T23:18:49.505Z,16.79
2023-04-18T23:21:52.544Z,17.20
2023-04-18T23:24:55.624Z,17.37
2023-04-18T23:27:58.211Z,17.48
2023-04-18T23:31:00.802Z,17.24
2023-04-18T23:34:03.356Z,17.44
2023-04-18T23:37:05.811Z,17.48
2023-04-18T23:40:09.273Z,17.58
2023-04-18T23:43:11.465Z,17.23
2023-04-18T23:46:15.277Z,17.41
2023-04-18T23:49:17.649Z,17.55
2023-04-18T23:52:20.098Z,17.64
2023-04-18T23:55:22.234Z,17.67
2023-04-18T23:58:26.485Z,17.61
